sensor_id;sensor_type;location;lat;lon;timestamp;P1;durP1;ratioP1;P2;durP2;ratioP2
42294;SDS011;27947;47.556;18.718;2023-05-10T00:01:59;5.45;;;2.05;;
42294;SDS011;27947;47.556;18.718;2023-05-10T00:04:24;2.53;;;1.92;;
42294;SDS011;27947;47.556;18.718;2023-05-10T00:06:52;4.53;;;1.95;;
42294;SDS011;27947;47.556;18.718;2023-05-10T00:09:18;5.32;;;2.00;;
42294;SDS011;27947;47.556;18.718;2023-05-10T00:11:43;5.20;;;2.30;;
42294;SDS011;27947;47.556;18.718;2023-05-10T00:14:08;6.32;;;2.15;;
42294;SDS011;27947;47.556;18.718;2023-05-10T00:16:34;3.05;;;2.22;;
42294;SDS011;27947;47.556;18.718;2023-05-10T00:18:59;5.82;;;2.13;;
42294;SDS011;27947;47.556;18.718;2023-05-10T00:21:24;5.05;;;2.50;;
42294;SDS011;27947;47.556;18.718;2023-05-10T00:23:50;8.48;;;2.30;;
42294;SDS011;27947;47.556;18.718;2023-05-10T00:26:15;3.95;;;2.38;;
42294;SDS011;27947;47.556;18.718;2023-05-10T00:28:44;6.00;;;2.13;;
42294;SDS011;27947;47.556;18.718;2023-05-10T00:31:09;7.22;;;2.45;;
42294;SDS011;27947;47.556;18.718;2023-05-10T00:33:34;4.45;;;2.50;;
42294;SDS011;27947;47.556;18.718;2023-05-10T00:36:00;3.35;;;2.47;;
42294;SDS011;27947;47.556;18.718;2023-05-10T00:38:25;3.33;;;2.22;;
42294;SDS011;27947;47.556;18.718;2023-05-10T00:40:50;3.78;;;2.30;;
42294;SDS011;27947;47.556;18.718;2023-05-10T00:43:24;4.18;;;2.70;;
42294;SDS011;27947;47.556;18.718;2023-05-10T00:45:49;4.85;;;2.20;;
42294;SDS011;27947;47.556;18.718;2023-05-10T00:48:15;3.20;;;2.30;;
42294;SDS011;27947;47.556;18.718;2023-05-10T00:50:40;6.20;;;2.58;;
42294;SDS011;27947;47.556;18.718;2023-05-10T00:53:06;3.30;;;2.40;;
42294;SDS011;27947;47.556;18.718;2023-05-10T00:55:32;3.05;;;2.33;;
42294;SDS011;27947;47.556;18.718;2023-05-10T00:57:57;4.22;;;2.58;;
42294;SDS011;27947;47.556;18.718;2023-05-10T01:00:23;5.65;;;2.92;;
42294;SDS011;27947;47.556;18.718;2023-05-10T01:02:49;5.20;;;3.05;;
42294;SDS011;27947;47.556;18.718;2023-05-10T01:05:15;6.03;;;3.00;;
42294;SDS011;27947;47.556;18.718;2023-05-10T01:07:40;5.28;;;2.63;;
42294;SDS011;27947;47.556;18.718;2023-05-10T01:10:06;5.88;;;3.20;;
42294;SDS011;27947;47.556;18.718;2023-05-10T01:12:33;5.43;;;3.30;;
42294;SDS011;27947;47.556;18.718;2023-05-10T01:14:58;4.35;;;3.63;;
42294;SDS011;27947;47.556;18.718;2023-05-10T01:17:25;3.90;;;3.15;;
42294;SDS011;27947;47.556;18.718;2023-05-10T01:19:50;10.23;;;3.72;;
42294;SDS011;27947;47.556;18.718;2023-05-10T01:27:20;5.30;;;3.80;;
42294;SDS011;27947;47.556;18.718;2023-05-10T01:37:20;5.70;;;3.60;;
42294;SDS011;27947;47.556;18.718;2023-05-10T01:42:21;3.80;;;3.08;;
42294;SDS011;27947;47.556;18.718;2023-05-10T01:44:49;6.78;;;3.20;;
42294;SDS011;27947;47.556;18.718;2023-05-10T01:47:17;5.35;;;3.38;;
42294;SDS011;27947;47.556;18.718;2023-05-10T01:49:47;5.43;;;3.60;;
42294;SDS011;27947;47.556;18.718;2023-05-10T01:52:14;6.78;;;3.75;;
42294;SDS011;27947;47.556;18.718;2023-05-10T01:54:54;6.88;;;3.63;;
42294;SDS011;27947;47.556;18.718;2023-05-10T01:57:20;5.95;;;3.40;;
42294;SDS011;27947;47.556;18.718;2023-05-10T01:59:47;4.93;;;3.90;;
42294;SDS011;27947;47.556;18.718;2023-05-10T02:02:13;4.30;;;3.40;;
42294;SDS011;27947;47.556;18.718;2023-05-10T02:04:39;5.28;;;3.63;;
42294;SDS011;27947;47.556;18.718;2023-05-10T02:07:06;6.85;;;4.00;;
42294;SDS011;27947;47.556;18.718;2023-05-10T02:09:32;7.93;;;3.80;;
42294;SDS011;27947;47.556;18.718;2023-05-10T02:11:59;5.68;;;3.95;;
42294;SDS011;27947;47.556;18.718;2023-05-10T02:14:25;5.35;;;3.92;;
42294;SDS011;27947;47.556;18.718;2023-05-10T02:16:51;6.25;;;4.03;;
42294;SDS011;27947;47.556;18.718;2023-05-10T02:19:17;7.45;;;4.50;;
42294;SDS011;27947;47.556;18.718;2023-05-10T02:21:42;6.82;;;4.40;;
42294;SDS011;27947;47.556;18.718;2023-05-10T02:24:08;6.15;;;4.20;;
42294;SDS011;27947;47.556;18.718;2023-05-10T02:26:34;6.80;;;4.00;;
42294;SDS011;27947;47.556;18.718;2023-05-10T02:29:01;5.88;;;4.00;;
42294;SDS011;27947;47.556;18.718;2023-05-10T02:31:28;5.32;;;4.32;;
42294;SDS011;27947;47.556;18.718;2023-05-10T02:33:54;5.68;;;4.07;;
42294;SDS011;27947;47.556;18.718;2023-05-10T02:36:20;5.63;;;4.32;;
42294;SDS011;27947;47.556;18.718;2023-05-10T02:38:46;5.38;;;4.03;;
42294;SDS011;27947;47.556;18.718;2023-05-10T02:41:12;5.32;;;4.15;;
42294;SDS011;27947;47.556;18.718;2023-05-10T02:43:38;4.93;;;4.00;;
42294;SDS011;27947;47.556;18.718;2023-05-10T02:46:04;4.80;;;4.00;;
42294;SDS011;27947;47.556;18.718;2023-05-10T02:48:30;6.57;;;4.00;;
42294;SDS011;27947;47.556;18.718;2023-05-10T02:50:56;6.07;;;4.38;;
42294;SDS011;27947;47.556;18.718;2023-05-10T02:53:30;7.20;;;4.22;;
42294;SDS011;27947;47.556;18.718;2023-05-10T02:55:57;8.98;;;4.55;;
42294;SDS011;27947;47.556;18.718;2023-05-10T02:58:23;6.78;;;4.28;;
42294;SDS011;27947;47.556;18.718;2023-05-10T03:00:49;5.57;;;3.72;;
42294;SDS011;27947;47.556;18.718;2023-05-10T03:03:14;7.05;;;4.13;;
42294;SDS011;27947;47.556;18.718;2023-05-10T03:05:41;5.80;;;4.45;;
42294;SDS011;27947;47.556;18.718;2023-05-10T03:08:06;5.78;;;3.78;;
42294;SDS011;27947;47.556;18.718;2023-05-10T03:10:32;6.82;;;4.28;;
42294;SDS011;27947;47.556;18.718;2023-05-10T03:13:07;11.27;;;4.78;;
42294;SDS011;27947;47.556;18.718;2023-05-10T03:15:51;8.50;;;3.85;;
42294;SDS011;27947;47.556;18.718;2023-05-10T03:18:33;7.93;;;4.45;;
42294;SDS011;27947;47.556;18.718;2023-05-10T03:21:03;5.65;;;4.50;;
42294;SDS011;27947;47.556;18.718;2023-05-10T03:23:35;7.57;;;4.45;;
42294;SDS011;27947;47.556;18.718;2023-05-10T03:26:01;7.43;;;4.30;;
42294;SDS011;27947;47.556;18.718;2023-05-10T03:28:28;6.55;;;4.07;;
42294;SDS011;27947;47.556;18.718;2023-05-10T03:30:55;8.77;;;4.50;;
42294;SDS011;27947;47.556;18.718;2023-05-10T03:33:21;8.43;;;4.32;;
42294;SDS011;27947;47.556;18.718;2023-05-10T03:35:47;6.20;;;4.50;;
42294;SDS011;27947;47.556;18.718;2023-05-10T03:38:13;7.13;;;3.92;;
42294;SDS011;27947;47.556;18.718;2023-05-10T03:40:39;6.82;;;5.10;;
42294;SDS011;27947;47.556;18.718;2023-05-10T03:43:04;5.57;;;4.20;;
42294;SDS011;27947;47.556;18.718;2023-05-10T03:45:30;6.78;;;4.32;;
42294;SDS011;27947;47.556;18.718;2023-05-10T03:47:56;9.75;;;4.15;;
42294;SDS011;27947;47.556;18.718;2023-05-10T03:50:22;5.68;;;3.70;;
42294;SDS011;27947;47.556;18.718;2023-05-10T03:52:47;5.68;;;4.00;;
42294;SDS011;27947;47.556;18.718;2023-05-10T03:55:12;7.68;;;4.45;;
42294;SDS011;27947;47.556;18.718;2023-05-10T03:57:38;8.82;;;3.83;;
42294;SDS011;27947;47.556;18.718;2023-05-10T04:00:05;8.15;;;4.20;;
42294;SDS011;27947;47.556;18.718;2023-05-10T04:02:39;5.40;;;3.63;;
42294;SDS011;27947;47.556;18.718;2023-05-10T04:05:05;5.05;;;3.75;;
42294;SDS011;27947;47.556;18.718;2023-05-10T04:07:30;5.65;;;4.13;;
42294;SDS011;27947;47.556;18.718;2023-05-10T04:09:55;5.03;;;3.75;;
42294;SDS011;27947;47.556;18.718;2023-05-10T04:12:21;6.00;;;3.88;;
42294;SDS011;27947;47.556;18.718;2023-05-10T04:14:46;4.72;;;4.18;;
42294;SDS011;27947;47.556;18.718;2023-05-10T04:17:12;7.55;;;3.78;;
42294;SDS011;27947;47.556;18.718;2023-05-10T04:19:37;8.27;;;3.70;;
42294;SDS011;27947;47.556;18.718;2023-05-10T04:22:03;7.57;;;3.85;;
42294;SDS011;27947;47.556;18.718;2023-05-10T04:24:28;5.13;;;3.75;;
42294;SDS011;27947;47.556;18.718;2023-05-10T04:26:54;11.48;;;3.90;;
42294;SDS011;27947;47.556;18.718;2023-05-10T04:29:20;5.13;;;3.70;;
42294;SDS011;27947;47.556;18.718;2023-05-10T04:31:45;6.43;;;3.80;;
42294;SDS011;27947;47.556;18.718;2023-05-10T04:34:10;6.32;;;4.20;;
42294;SDS011;27947;47.556;18.718;2023-05-10T04:36:36;7.82;;;3.83;;
42294;SDS011;27947;47.556;18.718;2023-05-10T04:39:02;7.10;;;4.50;;
42294;SDS011;27947;47.556;18.718;2023-05-10T04:41:28;6.82;;;4.22;;
42294;SDS011;27947;47.556;18.718;2023-05-10T04:43:53;6.63;;;3.90;;
42294;SDS011;27947;47.556;18.718;2023-05-10T04:46:18;5.38;;;4.05;;
42294;SDS011;27947;47.556;18.718;2023-05-10T04:48:44;8.70;;;3.88;;
42294;SDS011;27947;47.556;18.718;2023-05-10T04:51:09;9.02;;;4.10;;
42294;SDS011;27947;47.556;18.718;2023-05-10T04:53:34;8.25;;;4.30;;
42294;SDS011;27947;47.556;18.718;2023-05-10T04:56:00;6.38;;;4.00;;
42294;SDS011;27947;47.556;18.718;2023-05-10T04:58:25;5.20;;;3.75;;
42294;SDS011;27947;47.556;18.718;2023-05-10T05:00:51;7.03;;;4.05;;
42294;SDS011;27947;47.556;18.718;2023-05-10T05:03:16;6.50;;;3.72;;
42294;SDS011;27947;47.556;18.718;2023-05-10T05:05:41;7.20;;;3.90;;
42294;SDS011;27947;47.556;18.718;2023-05-10T05:08:07;6.50;;;3.63;;
42294;SDS011;27947;47.556;18.718;2023-05-10T05:10:32;10.40;;;3.92;;
42294;SDS011;27947;47.556;18.718;2023-05-10T05:12:57;4.82;;;3.92;;
42294;SDS011;27947;47.556;18.718;2023-05-10T05:15:23;9.38;;;4.07;;
42294;SDS011;27947;47.556;18.718;2023-05-10T05:17:48;7.05;;;3.97;;
42294;SDS011;27947;47.556;18.718;2023-05-10T05:20:13;5.72;;;4.10;;
42294;SDS011;27947;47.556;18.718;2023-05-10T05:22:39;6.22;;;3.85;;
42294;SDS011;27947;47.556;18.718;2023-05-10T05:25:04;9.40;;;4.22;;
42294;SDS011;27947;47.556;18.718;2023-05-10T05:27:30;8.88;;;4.50;;
42294;SDS011;27947;47.556;18.718;2023-05-10T05:29:56;5.45;;;3.80;;
42294;SDS011;27947;47.556;18.718;2023-05-10T05:32:22;8.93;;;4.07;;
42294;SDS011;27947;47.556;18.718;2023-05-10T05:34:47;6.45;;;4.30;;
42294;SDS011;27947;47.556;18.718;2023-05-10T05:37:16;8.70;;;4.05;;
42294;SDS011;27947;47.556;18.718;2023-05-10T05:39:42;7.68;;;3.72;;
42294;SDS011;27947;47.556;18.718;2023-05-10T05:42:08;6.70;;;3.78;;
42294;SDS011;27947;47.556;18.718;2023-05-10T05:44:33;10.30;;;4.55;;
42294;SDS011;27947;47.556;18.718;2023-05-10T05:46:59;7.53;;;4.20;;
42294;SDS011;27947;47.556;18.718;2023-05-10T05:49:24;5.32;;;3.80;;
42294;SDS011;27947;47.556;18.718;2023-05-10T05:51:50;6.18;;;4.35;;
42294;SDS011;27947;47.556;18.718;2023-05-10T05:54:15;8.10;;;3.92;;
42294;SDS011;27947;47.556;18.718;2023-05-10T05:56:40;9.07;;;3.83;;
42294;SDS011;27947;47.556;18.718;2023-05-10T05:59:06;6.93;;;4.60;;
42294;SDS011;27947;47.556;18.718;2023-05-10T06:01:31;6.07;;;4.13;;
42294;SDS011;27947;47.556;18.718;2023-05-10T06:03:56;7.13;;;3.90;;
42294;SDS011;27947;47.556;18.718;2023-05-10T06:06:22;7.00;;;3.75;;
42294;SDS011;27947;47.556;18.718;2023-05-10T06:08:47;6.25;;;3.53;;
42294;SDS011;27947;47.556;18.718;2023-05-10T06:11:12;6.97;;;3.88;;
42294;SDS011;27947;47.556;18.718;2023-05-10T06:13:38;8.60;;;4.40;;
42294;SDS011;27947;47.556;18.718;2023-05-10T06:16:03;6.82;;;4.18;;
42294;SDS011;27947;47.556;18.718;2023-05-10T06:18:29;8.40;;;3.90;;
42294;SDS011;27947;47.556;18.718;2023-05-10T06:20:54;20.63;;;4.00;;
42294;SDS011;27947;47.556;18.718;2023-05-10T06:23:19;6.35;;;3.38;;
42294;SDS011;27947;47.556;18.718;2023-05-10T06:25:45;14.05;;;3.45;;
42294;SDS011;27947;47.556;18.718;2023-05-10T06:28:10;6.07;;;3.70;;
42294;SDS011;27947;47.556;18.718;2023-05-10T06:30:36;6.60;;;3.50;;
42294;SDS011;27947;47.556;18.718;2023-05-10T06:33:01;6.65;;;3.47;;
42294;SDS011;27947;47.556;18.718;2023-05-10T06:35:27;5.78;;;2.95;;
42294;SDS011;27947;47.556;18.718;2023-05-10T06:37:53;6.72;;;3.33;;
42294;SDS011;27947;47.556;18.718;2023-05-10T06:40:18;9.05;;;3.10;;
42294;SDS011;27947;47.556;18.718;2023-05-10T06:42:43;4.10;;;2.97;;
42294;SDS011;27947;47.556;18.718;2023-05-10T06:45:10;3.92;;;2.83;;
42294;SDS011;27947;47.556;18.718;2023-05-10T06:47:35;5.30;;;3.10;;
42294;SDS011;27947;47.556;18.718;2023-05-10T06:50:01;6.88;;;2.92;;
42294;SDS011;27947;47.556;18.718;2023-05-10T06:52:26;5.55;;;2.90;;
42294;SDS011;27947;47.556;18.718;2023-05-10T06:54:51;4.97;;;3.00;;
42294;SDS011;27947;47.556;18.718;2023-05-10T06:57:17;5.10;;;2.78;;
42294;SDS011;27947;47.556;18.718;2023-05-10T06:59:43;8.80;;;3.20;;
42294;SDS011;27947;47.556;18.718;2023-05-10T07:02:08;6.13;;;3.08;;
42294;SDS011;27947;47.556;18.718;2023-05-10T07:04:34;8.52;;;3.10;;
42294;SDS011;27947;47.556;18.718;2023-05-10T07:06:59;10.65;;;3.00;;
42294;SDS011;27947;47.556;18.718;2023-05-10T07:09:24;5.80;;;2.85;;
42294;SDS011;27947;47.556;18.718;2023-05-10T07:11:50;3.97;;;2.53;;
42294;SDS011;27947;47.556;18.718;2023-05-10T07:14:15;6.13;;;2.50;;
42294;SDS011;27947;47.556;18.718;2023-05-10T07:16:40;4.78;;;3.20;;
42294;SDS011;27947;47.556;18.718;2023-05-10T07:19:06;3.95;;;2.90;;
42294;SDS011;27947;47.556;18.718;2023-05-10T07:21:32;5.03;;;3.00;;
42294;SDS011;27947;47.556;18.718;2023-05-10T07:23:57;9.27;;;3.22;;
42294;SDS011;27947;47.556;18.718;2023-05-10T07:26:23;3.92;;;2.83;;
42294;SDS011;27947;47.556;18.718;2023-05-10T07:28:49;7.47;;;3.28;;
42294;SDS011;27947;47.556;18.718;2023-05-10T07:31:14;5.32;;;3.20;;
42294;SDS011;27947;47.556;18.718;2023-05-10T07:33:39;4.40;;;2.92;;
42294;SDS011;27947;47.556;18.718;2023-05-10T07:36:05;6.57;;;3.00;;
42294;SDS011;27947;47.556;18.718;2023-05-10T07:38:30;5.78;;;2.97;;
42294;SDS011;27947;47.556;18.718;2023-05-10T07:40:55;6.20;;;2.92;;
42294;SDS011;27947;47.556;18.718;2023-05-10T07:43:21;6.38;;;3.30;;
42294;SDS011;27947;47.556;18.718;2023-05-10T07:45:46;5.05;;;3.45;;
42294;SDS011;27947;47.556;18.718;2023-05-10T07:48:11;7.03;;;3.72;;
42294;SDS011;27947;47.556;18.718;2023-05-10T07:50:37;7.88;;;3.72;;
42294;SDS011;27947;47.556;18.718;2023-05-10T07:53:02;4.00;;;3.35;;
42294;SDS011;27947;47.556;18.718;2023-05-10T07:55:27;7.55;;;3.35;;
42294;SDS011;27947;47.556;18.718;2023-05-10T07:57:53;5.20;;;3.15;;
42294;SDS011;27947;47.556;18.718;2023-05-10T08:00:18;7.80;;;3.55;;
42294;SDS011;27947;47.556;18.718;2023-05-10T08:02:45;6.82;;;3.38;;
42294;SDS011;27947;47.556;18.718;2023-05-10T08:05:10;7.03;;;3.28;;
42294;SDS011;27947;47.556;18.718;2023-05-10T08:07:35;5.40;;;3.10;;
42294;SDS011;27947;47.556;18.718;2023-05-10T08:10:02;6.07;;;3.00;;
42294;SDS011;27947;47.556;18.718;2023-05-10T08:12:27;5.07;;;3.08;;
42294;SDS011;27947;47.556;18.718;2023-05-10T08:14:52;6.00;;;3.08;;
42294;SDS011;27947;47.556;18.718;2023-05-10T08:17:18;6.50;;;2.90;;
42294;SDS011;27947;47.556;18.718;2023-05-10T08:19:43;6.90;;;2.63;;
42294;SDS011;27947;47.556;18.718;2023-05-10T08:22:08;3.50;;;2.50;;
42294;SDS011;27947;47.556;18.718;2023-05-10T08:24:34;6.05;;;3.00;;
42294;SDS011;27947;47.556;18.718;2023-05-10T08:27:03;12.27;;;2.88;;
42294;SDS011;27947;47.556;18.718;2023-05-10T08:29:28;3.97;;;2.40;;
42294;SDS011;27947;47.556;18.718;2023-05-10T08:31:54;8.27;;;2.40;;
42294;SDS011;27947;47.556;18.718;2023-05-10T08:34:19;3.33;;;2.40;;
42294;SDS011;27947;47.556;18.718;2023-05-10T08:36:45;4.82;;;2.70;;
42294;SDS011;27947;47.556;18.718;2023-05-10T08:39:10;5.53;;;2.67;;
42294;SDS011;27947;47.556;18.718;2023-05-10T08:41:36;4.72;;;2.17;;
42294;SDS011;27947;47.556;18.718;2023-05-10T08:44:04;8.93;;;3.05;;
42294;SDS011;27947;47.556;18.718;2023-05-10T08:46:30;4.22;;;2.05;;
42294;SDS011;27947;47.556;18.718;2023-05-10T08:48:56;5.53;;;2.38;;
42294;SDS011;27947;47.556;18.718;2023-05-10T08:51:24;5.35;;;2.35;;
42294;SDS011;27947;47.556;18.718;2023-05-10T08:53:51;4.80;;;2.88;;
42294;SDS011;27947;47.556;18.718;2023-05-10T08:56:17;5.95;;;2.70;;
42294;SDS011;27947;47.556;18.718;2023-05-10T08:58:43;4.55;;;2.55;;
42294;SDS011;27947;47.556;18.718;2023-05-10T09:01:08;5.28;;;2.97;;
42294;SDS011;27947;47.556;18.718;2023-05-10T09:03:34;3.92;;;2.50;;
42294;SDS011;27947;47.556;18.718;2023-05-10T09:06:00;4.32;;;2.78;;
42294;SDS011;27947;47.556;18.718;2023-05-10T09:08:26;5.53;;;2.70;;
42294;SDS011;27947;47.556;18.718;2023-05-10T09:10:51;3.58;;;2.40;;
42294;SDS011;27947;47.556;18.718;2023-05-10T09:13:17;3.75;;;2.67;;
42294;SDS011;27947;47.556;18.718;2023-05-10T09:15:43;4.07;;;2.55;;
42294;SDS011;27947;47.556;18.718;2023-05-10T09:18:09;4.55;;;2.50;;
42294;SDS011;27947;47.556;18.718;2023-05-10T09:20:34;5.90;;;2.30;;
42294;SDS011;27947;47.556;18.718;2023-05-10T09:23:00;5.47;;;2.60;;
42294;SDS011;27947;47.556;18.718;2023-05-10T09:25:25;6.35;;;2.78;;
42294;SDS011;27947;47.556;18.718;2023-05-10T09:27:51;3.30;;;2.63;;
42294;SDS011;27947;47.556;18.718;2023-05-10T09:30:22;5.03;;;2.17;;
42294;SDS011;27947;47.556;18.718;2023-05-10T09:32:48;3.33;;;2.60;;
42294;SDS011;27947;47.556;18.718;2023-05-10T09:35:14;6.45;;;2.70;;
42294;SDS011;27947;47.556;18.718;2023-05-10T09:37:40;3.90;;;2.58;;
42294;SDS011;27947;47.556;18.718;2023-05-10T09:40:07;5.80;;;2.67;;
42294;SDS011;27947;47.556;18.718;2023-05-10T09:42:33;5.68;;;2.55;;
42294;SDS011;27947;47.556;18.718;2023-05-10T09:45:07;6.07;;;2.35;;
42294;SDS011;27947;47.556;18.718;2023-05-10T09:47:36;4.72;;;2.53;;
42294;SDS011;27947;47.556;18.718;2023-05-10T09:50:02;4.80;;;2.72;;
42294;SDS011;27947;47.556;18.718;2023-05-10T09:52:29;5.70;;;2.60;;
42294;SDS011;27947;47.556;18.718;2023-05-10T09:54:54;7.32;;;2.58;;
42294;SDS011;27947;47.556;18.718;2023-05-10T09:57:20;3.35;;;2.25;;
42294;SDS011;27947;47.556;18.718;2023-05-10T09:59:47;3.53;;;2.30;;
42294;SDS011;27947;47.556;18.718;2023-05-10T10:02:12;6.47;;;2.38;;
42294;SDS011;27947;47.556;18.718;2023-05-10T10:04:41;5.72;;;2.47;;
42294;SDS011;27947;47.556;18.718;2023-05-10T10:07:07;4.10;;;2.10;;
42294;SDS011;27947;47.556;18.718;2023-05-10T10:09:33;3.45;;;2.40;;
42294;SDS011;27947;47.556;18.718;2023-05-10T10:12:02;2.90;;;2.50;;
42294;SDS011;27947;47.556;18.718;2023-05-10T10:14:28;3.47;;;2.75;;
42294;SDS011;27947;47.556;18.718;2023-05-10T10:16:54;3.10;;;2.30;;
42294;SDS011;27947;47.556;18.718;2023-05-10T10:19:19;8.88;;;2.50;;
42294;SDS011;27947;47.556;18.718;2023-05-10T10:21:48;2.35;;;2.00;;
42294;SDS011;27947;47.556;18.718;2023-05-10T10:24:14;6.05;;;2.60;;
42294;SDS011;27947;47.556;18.718;2023-05-10T10:26:39;5.03;;;2.50;;
42294;SDS011;27947;47.556;18.718;2023-05-10T10:31:40;3.30;;;2.30;;
42294;SDS011;27947;47.556;18.718;2023-05-10T10:34:08;13.57;;;3.00;;
42294;SDS011;27947;47.556;18.718;2023-05-10T10:36:40;4.97;;;2.33;;
42294;SDS011;27947;47.556;18.718;2023-05-10T10:39:08;6.82;;;2.45;;
42294;SDS011;27947;47.556;18.718;2023-05-10T10:41:35;3.88;;;2.05;;
42294;SDS011;27947;47.556;18.718;2023-05-10T10:55:07;2.92;;;2.30;;
42294;SDS011;27947;47.556;18.718;2023-05-10T11:06:02;2.70;;;2.20;;
42294;SDS011;27947;47.556;18.718;2023-05-10T11:08:06;3.60;;;1.90;;
42294;SDS011;27947;47.556;18.718;2023-05-10T11:10:32;6.40;;;2.25;;
42294;SDS011;27947;47.556;18.718;2023-05-10T11:13:01;2.70;;;2.00;;
42294;SDS011;27947;47.556;18.718;2023-05-10T11:15:37;5.03;;;1.75;;
42294;SDS011;27947;47.556;18.718;2023-05-10T11:18:23;2.35;;;1.70;;
42294;SDS011;27947;47.556;18.718;2023-05-10T11:20:49;1.85;;;1.55;;
42294;SDS011;27947;47.556;18.718;2023-05-10T11:23:15;20.65;;;2.58;;
42294;SDS011;27947;47.556;18.718;2023-05-10T11:25:50;3.03;;;2.03;;
42294;SDS011;27947;47.556;18.718;2023-05-10T11:28:16;6.28;;;1.70;;
42294;SDS011;27947;47.556;18.718;2023-05-10T11:30:43;3.20;;;2.08;;
42294;SDS011;27947;47.556;18.718;2023-05-10T11:33:09;3.45;;;1.80;;
42294;SDS011;27947;47.556;18.718;2023-05-10T11:35:38;2.10;;;1.70;;
42294;SDS011;27947;47.556;18.718;2023-05-10T11:38:09;6.18;;;2.22;;
42294;SDS011;27947;47.556;18.718;2023-05-10T11:40:35;4.97;;;1.60;;
42294;SDS011;27947;47.556;18.718;2023-05-10T11:43:02;3.05;;;1.77;;
42294;SDS011;27947;47.556;18.718;2023-05-10T11:45:27;3.08;;;1.98;;
42294;SDS011;27947;47.556;18.718;2023-05-10T11:47:54;2.60;;;1.98;;
42294;SDS011;27947;47.556;18.718;2023-05-10T11:50:20;4.43;;;1.90;;
42294;SDS011;27947;47.556;18.718;2023-05-10T11:52:45;3.70;;;1.60;;
42294;SDS011;27947;47.556;18.718;2023-05-10T11:55:15;3.97;;;1.38;;
42294;SDS011;27947;47.556;18.718;2023-05-10T11:57:40;5.35;;;1.58;;
42294;SDS011;27947;47.556;18.718;2023-05-10T12:00:07;5.00;;;1.48;;
42294;SDS011;27947;47.556;18.718;2023-05-10T12:02:33;7.55;;;1.90;;
42294;SDS011;27947;47.556;18.718;2023-05-10T12:04:58;3.47;;;1.77;;
42294;SDS011;27947;47.556;18.718;2023-05-10T12:07:24;5.22;;;1.58;;
42294;SDS011;27947;47.556;18.718;2023-05-10T12:10:04;2.15;;;1.75;;
42294;SDS011;27947;47.556;18.718;2023-05-10T12:12:40;3.72;;;1.52;;
42294;SDS011;27947;47.556;18.718;2023-05-10T12:15:10;4.68;;;1.60;;
42294;SDS011;27947;47.556;18.718;2023-05-10T12:17:37;2.55;;;1.73;;
42294;SDS011;27947;47.556;18.718;2023-05-10T12:20:18;2.65;;;1.50;;
42294;SDS011;27947;47.556;18.718;2023-05-10T12:22:49;3.25;;;1.60;;
42294;SDS011;27947;47.556;18.718;2023-05-10T12:25:14;4.40;;;1.52;;
42294;SDS011;27947;47.556;18.718;2023-05-10T12:27:40;1.80;;;1.25;;
42294;SDS011;27947;47.556;18.718;2023-05-10T12:30:06;3.67;;;1.45;;
42294;SDS011;27947;47.556;18.718;2023-05-10T12:32:38;1.58;;;1.20;;
42294;SDS011;27947;47.556;18.718;2023-05-10T12:35:04;2.33;;;1.20;;
42294;SDS011;27947;47.556;18.718;2023-05-10T12:37:29;3.70;;;1.25;;
42294;SDS011;27947;47.556;18.718;2023-05-10T12:39:55;1.35;;;1.10;;
42294;SDS011;27947;47.556;18.718;2023-05-10T12:42:20;2.75;;;1.58;;
42294;SDS011;27947;47.556;18.718;2023-05-10T12:44:46;5.28;;;1.30;;
42294;SDS011;27947;47.556;18.718;2023-05-10T12:47:11;2.05;;;1.40;;
42294;SDS011;27947;47.556;18.718;2023-05-10T12:49:36;3.97;;;1.50;;
42294;SDS011;27947;47.556;18.718;2023-05-10T12:52:02;4.63;;;1.42;;
42294;SDS011;27947;47.556;18.718;2023-05-10T12:54:27;3.72;;;1.55;;
42294;SDS011;27947;47.556;18.718;2023-05-10T12:56:52;2.75;;;1.40;;
42294;SDS011;27947;47.556;18.718;2023-05-10T12:59:18;2.85;;;1.30;;
42294;SDS011;27947;47.556;18.718;2023-05-10T13:01:43;3.28;;;1.50;;
42294;SDS011;27947;47.556;18.718;2023-05-10T13:04:08;4.22;;;1.35;;
42294;SDS011;27947;47.556;18.718;2023-05-10T13:06:34;1.70;;;1.25;;
42294;SDS011;27947;47.556;18.718;2023-05-10T13:09:00;3.15;;;1.70;;
42294;SDS011;27947;47.556;18.718;2023-05-10T13:11:25;5.03;;;1.60;;
42294;SDS011;27947;47.556;18.718;2023-05-10T13:13:51;3.28;;;1.40;;
42294;SDS011;27947;47.556;18.718;2023-05-10T13:16:16;2.35;;;1.42;;
42294;SDS011;27947;47.556;18.718;2023-05-10T13:18:41;3.25;;;1.50;;
42294;SDS011;27947;47.556;18.718;2023-05-10T13:21:07;4.15;;;1.70;;
42294;SDS011;27947;47.556;18.718;2023-05-10T13:23:33;4.60;;;1.50;;
42294;SDS011;27947;47.556;18.718;2023-05-10T13:25:58;3.00;;;1.40;;
42294;SDS011;27947;47.556;18.718;2023-05-10T13:28:23;4.18;;;1.20;;
42294;SDS011;27947;47.556;18.718;2023-05-10T13:30:51;3.90;;;2.00;;
42294;SDS011;27947;47.556;18.718;2023-05-10T13:33:16;3.53;;;1.30;;
42294;SDS011;27947;47.556;18.718;2023-05-10T13:35:42;3.15;;;1.40;;
42294;SDS011;27947;47.556;18.718;2023-05-10T13:38:07;4.55;;;1.80;;
42294;SDS011;27947;47.556;18.718;2023-05-10T13:40:33;5.40;;;1.33;;
42294;SDS011;27947;47.556;18.718;2023-05-10T13:42:58;2.38;;;1.30;;
42294;SDS011;27947;47.556;18.718;2023-05-10T13:45:23;3.47;;;1.15;;
42294;SDS011;27947;47.556;18.718;2023-05-10T13:47:49;2.72;;;1.30;;
42294;SDS011;27947;47.556;18.718;2023-05-10T13:50:14;2.33;;;1.15;;
42294;SDS011;27947;47.556;18.718;2023-05-10T13:52:40;3.50;;;1.40;;
42294;SDS011;27947;47.556;18.718;2023-05-10T13:55:05;1.85;;;1.38;;
42294;SDS011;27947;47.556;18.718;2023-05-10T13:57:31;2.90;;;1.10;;
42294;SDS011;27947;47.556;18.718;2023-05-10T13:59:56;1.70;;;1.05;;
42294;SDS011;27947;47.556;18.718;2023-05-10T14:02:22;2.28;;;1.38;;
42294;SDS011;27947;47.556;18.718;2023-05-10T14:04:47;2.35;;;1.08;;
42294;SDS011;27947;47.556;18.718;2023-05-10T14:07:13;5.60;;;1.15;;
42294;SDS011;27947;47.556;18.718;2023-05-10T14:09:38;2.85;;;1.33;;
42294;SDS011;27947;47.556;18.718;2023-05-10T14:12:04;3.92;;;1.60;;
42294;SDS011;27947;47.556;18.718;2023-05-10T14:14:29;2.65;;;1.50;;
42294;SDS011;27947;47.556;18.718;2023-05-10T14:16:54;2.08;;;1.30;;
42294;SDS011;27947;47.556;18.718;2023-05-10T14:19:20;2.13;;;1.73;;
42294;SDS011;27947;47.556;18.718;2023-05-10T14:21:45;3.38;;;1.20;;
42294;SDS011;27947;47.556;18.718;2023-05-10T14:24:11;4.18;;;1.23;;
42294;SDS011;27947;47.556;18.718;2023-05-10T14:26:36;2.05;;;1.40;;
42294;SDS011;27947;47.556;18.718;2023-05-10T14:29:01;23.58;;;9.60;;
42294;SDS011;27947;47.556;18.718;2023-05-10T14:31:27;5.75;;;3.58;;
42294;SDS011;27947;47.556;18.718;2023-05-10T14:33:53;3.53;;;1.45;;
42294;SDS011;27947;47.556;18.718;2023-05-10T14:36:19;9.10;;;1.40;;
42294;SDS011;27947;47.556;18.718;2023-05-10T14:38:44;3.15;;;1.20;;
42294;SDS011;27947;47.556;18.718;2023-05-10T14:41:09;1.65;;;1.00;;
42294;SDS011;27947;47.556;18.718;2023-05-10T14:43:39;3.20;;;1.25;;
42294;SDS011;27947;47.556;18.718;2023-05-10T14:46:04;2.58;;;1.23;;
42294;SDS011;27947;47.556;18.718;2023-05-10T14:48:30;3.88;;;1.23;;
42294;SDS011;27947;47.556;18.718;2023-05-10T14:50:55;1.60;;;1.30;;
42294;SDS011;27947;47.556;18.718;2023-05-10T14:53:20;2.47;;;1.50;;
42294;SDS011;27947;47.556;18.718;2023-05-10T14:55:46;3.25;;;0.95;;
42294;SDS011;27947;47.556;18.718;2023-05-10T14:58:11;2.70;;;1.25;;
42294;SDS011;27947;47.556;18.718;2023-05-10T15:00:37;2.30;;;1.23;;
42294;SDS011;27947;47.556;18.718;2023-05-10T15:03:02;5.03;;;1.45;;
42294;SDS011;27947;47.556;18.718;2023-05-10T15:05:28;3.35;;;0.82;;